aviador You're here:

LEBG Decoded Metar

BURGOS in SPAIN
Report Time2018-02-19 11:30:00
UTC Time2018-02-19 12:07:45
Flight Rules lifr LIFR
Wind250° at 04 kt
W.Decomp.*RWY 22: 3.4 kt HW 2.1 kt RCW
W.Rank250° ranks 12
Current wind is below 250° avg. (8.4)
Visibility2500 m
Phenomena:Light Rain
Clouds:Broken 003 Hf
Broken 013 Hf
Ceiling300 ft
Temp05°C (ISA -4)
Dew Point05°C (100% RH)
AAT2.4°C
QNH1021 hPa
Density Alt2,277 ft
Elevation2,923 ft
Report Wrong Elevation
Raw Report
METAR LEBG 191130Z 25004KT 2500 -RA BKN003 BKN013 05/05 Q1021=

Extra information for LEBG:More info

Metar Taf Metar & Taf Last 4 Metars F.Rules Stats Wind Profile Meteogram Temp Stats Airport Information Weather charts Add Link Nearby VenuesMetar ALERT Operation Metar Decoded Social comments